Flight Track Log - Related Links

Times and Time Zones

All times are in EDT time to prevent confusion due to time zone crossing. See the N4428 flight status page for this flight to view local times or setup timezone preferences in your user account.

Time Position Orientation Groundspeed Altitude Reporting Facility
EDT Latitude Longitude Course Direction KTS MPH feet Rate Location/Type
Tue 09:59:32 AM 40.9000 -74.1333 217° Southwest 255 293 4,200  Level
Tue 09:59:39 AM 40.8833 -74.1500 255° West 253 291 3,700 3,049 Descending
Tue 10:00:33 AM 40.8667 -74.2333 270° West 269 310 7,300 2,800 Climbing
Tue 10:00:39 AM 40.8667 -74.2500 255° West 265 305 6,500 1,400 Descending
Tue 10:01:33 AM 40.8500 -74.3333 360° North 285 328 8,700 1,800 Climbing
Tue 10:01:39 AM 40.8500 -74.3333 259° West 284 327 8,300 2,066 Descending
Tue 10:02:34 AM 40.8333 -74.4500 360° North 305 351 10,800 2,000 Climbing
Tue 10:02:39 AM 40.8333 -74.4500 249° West 302 348 10,300 2,492 Descending
Tue 10:03:39 AM 40.8000 -74.5667 259° West 320 368 13,500 3,025 Climbing
Tue 10:04:40 AM 40.7833 -74.6833 246° West 320 368 16,400 2,746 Climbing
Tue 10:05:37 AM 40.7500 -74.7833 259° West 320 368 18,900 2,359 Climbing
Tue 10:06:37 AM 40.7333 -74.9000 252° West 320 368 21,000 2,000 Climbing
Tue 10:07:37 AM 40.7000 -75.0333 249° West 340 391 22,900 1,835 Climbing
Tue 10:08:38 AM 40.6667 -75.1500 233° Southwest 350 403 24,700 1,835 Climbing
Tue 10:09:38 AM 40.6000 -75.2667 237° Southwest 356 410 26,600 1,750 Climbing
Tue 10:10:38 AM 40.5500 -75.3667 241° Southwest 356 410 28,200 1,550 Climbing
Tue 10:11:38 AM 40.5000 -75.4833 241° Southwest 356 410 29,700 1,350 Climbing
Tue 10:12:38 AM 40.4500 -75.6000 241° Southwest 368 423 30,900 3,124 Climbing
Tue 10:13:39 AM 40.4000 -75.7167 233° Southwest 368 423 36,000 893 Climbing
Tue 10:14:39 AM 40.3333 -75.8333 237° Southwest 374 430 32,700  Descending
Tue 10:15:39 AM 40.2833 -75.9333 244° Southwest 374 430 36,000 1,200 Climbing
Tue 10:16:39 AM 40.2333 -76.0667 229° Southwest 374 430 35,100  Descending
Tue 10:17:39 AM 40.1667 -76.1667 244° Southwest 374 430 36,000 446 Climbing
Tue 10:18:40 AM 40.1167 -76.3000 241° Southwest 381 438 36,000  Level
Tue 10:19:40 AM 40.0667 -76.4167 237° Southwest 392 451 36,000  Level
Tue 10:20:37 AM 40.0000 -76.5500 246° West 405 466 36,000  Level
Tue 10:21:01 AM 39.9833 -76.6000 232° Southwest 408 470 36,000  Level
Tue 10:21:37 AM 39.9333 -76.6833 247° West 415 478 36,000  Level
Tue 10:22:01 AM 39.9167 -76.7333 237° Southwest 419 482 36,000  Level
Tue 10:23:01 AM 39.8500 -76.8667 240° Southwest 436 502 36,000  Level
Tue 10:24:01 AM 39.7833 -77.0167 237° Southwest 442 509 36,000  Level
Tue 10:25:01 AM 39.7167 -77.1500 237° Southwest 448 516 36,000  Level
Tue 10:26:01 AM 39.6500 -77.2833 240° Southwest 453 521 36,000  Level
Tue 10:27:01 AM 39.5833 -77.4333 237° Southwest 453 521 36,000  Level
Tue 10:28:01 AM 39.5167 -77.5667 237° Southwest 453 521 36,000  Level
Tue 10:29:01 AM 39.4500 -77.7000 240° Southwest 459 528 36,000  Level
Tue 10:30:01 AM 39.3833 -77.8500 244° Southwest 459 528 36,000  Level
Tue 10:31:01 AM 39.3333 -77.9833 240° Southwest 464 534 36,000 -1,000 Level
Tue 10:32:01 AM 39.2667 -78.1333 247° West 464 534 34,000 -1,000 Descending
Tue 10:33:01 AM 39.2167 -78.2833 240° Southwest 464 534 34,000  Level
Tue 10:34:01 AM 39.1500 -78.4333 240° Southwest 469 540 34,000  Level
Tue 10:35:01 AM 39.0833 -78.5833 249° West 469 540 34,000  Level
Tue 10:36:01 AM 39.0333 -78.7500 270° West 469 540 34,000  Level
Tue 10:37:01 AM 39.0333 -78.9000 263° West 457 526 34,000  Level
Tue 10:38:01 AM 39.0167 -79.0667 270° West 463 533 34,000  Level
Tue 10:39:01 AM 39.0167 -79.2333 263° West 463 533 34,000  Level
Tue 10:40:01 AM 39.0000 -79.4000 263° West 468 539 34,000 850 Level
Tue 10:41:01 AM 38.9833 -79.5667 264° West 468 539 35,700  Climbing
Tue 10:46:34 AM 38.9000 -80.5167 263° West 472 543 34,000 -260 Descending
Tue 10:47:34 AM 38.8833 -80.6833 263° West 472 543 34,000  Level
Tue 10:48:34 AM 38.8667 -80.8500 263° West 472 543 34,000  Level
Tue 10:49:34 AM 38.8500 -81.0167 263° West 472 543 34,000 -500 Level
Tue 10:50:34 AM 38.8333 -81.1833 270° West 472 543 33,000 -1,100 Descending
Tue 10:51:34 AM 38.8333 -81.3500 262° West 467 537 31,800 -1,350 Descending
Tue 10:52:34 AM 38.8167 -81.5000 263° West 461 531 30,300 -1,500 Descending
Tue 10:53:34 AM 38.8000 -81.6667 263° West 474 545 28,800 -1,550 Descending
Tue 10:54:34 AM 38.7833 -81.8333 263° West 474 545 27,200 -2,380 Descending
Tue 10:55:35 AM 38.7667 -82.0000 262° West 463 533 24,000 -1,587 Descending
Tue 10:56:35 AM 38.7500 -82.1500 262° West 456 525 24,000  Level
Tue 10:57:35 AM 38.7333 -82.3000 270° West 443 510 24,000  Level
Tue 10:58:35 AM 38.7333 -82.4500 270° West 437 503 24,000  Level
Tue 10:59:34 AM 38.7333 -82.6000 247° West 437 503 24,000  Level
Tue 11:00:34 AM 38.6833 -82.7500 206° Southwest 420 483 24,000  Level
Tue 11:01:34 AM 38.5500 -82.8333 209° Southwest 453 521 24,000  Level
Tue 11:02:34 AM 38.4333 -82.9167 209° Southwest 472 543 24,000 -250 Level
Tue 11:03:34 AM 38.3167 -83.0000 218° Southwest 477 549 23,500 -1,250 Descending
Tue 11:04:34 AM 38.2167 -83.1000 278° West 477 549 21,500 -1,900 Descending
Tue 11:05:34 AM 38.2333 -83.2500 322° Northwest 393 452 19,700 -2,100 Descending
Tue 11:06:34 AM 38.3333 -83.3500 310° West 400 460 17,300 -2,550 Descending
Tue 11:07:34 AM 38.4000 -83.4500 322° Northwest 395 455 14,600 -2,150 Descending
Tue 11:08:34 AM 38.4833 -83.5333 310° West 389 448 13,000 -1,650 Descending
Tue 11:09:34 AM 38.5500 -83.6333 311° West 376 433 11,300 -1,500 Descending
Tue 11:10:34 AM 38.6167 -83.7333 314° West 355 409 10,000 -1,200 Descending
Tue 11:11:34 AM 38.6667 -83.8000 360° North 306 352 8,900 -1,151 Descending
Tue 11:11:47 AM 38.6667 -83.8000 314° West 285 328 8,600 -1,400 Descending
Tue 11:12:34 AM 38.7167 -83.8667 303° West 287 330 7,500 -1,500 Descending
Tue 11:12:59 AM 38.7333 -83.9000 311° West 279 321 6,800 -1,200 Descending
Tue 11:13:34 AM 38.7667 -83.9500 322° Northwest 282 325 6,300 -800 Descending
Tue 11:13:59 AM 38.7833 -83.9667 311° West 278 320 6,000 -300 Descending
Tue 11:14:34 AM 38.8167 -84.0167 322° Northwest 277 319 6,000  Level
Tue 11:14:59 AM 38.8500 -84.0500 303° West 278 320 6,000  Level
Tue 11:15:34 AM 38.8667 -84.0833 339° North 277 319 6,000 -600 Level
Tue 11:15:59 AM 38.9000 -84.1000 322° Northwest 267 307 5,400 -1,000 Descending
Tue 11:16:34 AM 38.9333 -84.1333 322° Northwest 263 303 5,000 -900 Descending
Tue 11:16:59 AM 38.9500 -84.1500 322° Northwest 236 272 4,500 -900 Descending
Tue 11:17:34 AM 38.9833 -84.1833 339° North 244 281 4,100 -900 Descending
Tue 11:17:59 AM 39.0167 -84.2000 322° Northwest 229 264 3,600 -900 Descending
Tue 11:18:34 AM 39.0333 -84.2167 339° North 236 272 3,200 -600 Descending
Tue 11:18:59 AM 39.0667 -84.2333 303° West 227 261 3,000 -200 Descending
Tue 11:19:34 AM 39.0833 -84.2667 322° Northwest 228 262 3,000 -100 Level
Tue 11:19:59 AM 39.1000 -84.2833 322° Northwest 210 242 2,900 -500 Descending
Tue 11:20:34 AM 39.1333 -84.3167 270° West 218 251 2,500 -800 Descending
Tue 11:20:59 AM 39.1333 -84.3333 322° Northwest 177 204 2,100 3,500 Descending
Tue 11:21:34 AM 39.1667 -84.3667 201° Southwest 205 236 6,000 -800 Climbing
Tue 11:21:59 AM 39.1333 -84.3833 201° Southwest 153 176 1,300 -11,280 Descending

Login

Don't have an account? Register now (free) for customized features, flight alerts, and more!